createdAt,value
2023-10-10T00:01:45.210Z,6.70
2023-10-10T00:04:12.210Z,7.78
2023-10-10T00:06:41.929Z,8.55
2023-10-10T00:09:12.329Z,10.70
2023-10-10T00:11:46.377Z,10.52
2023-10-10T00:14:20.261Z,8.73
2023-10-10T00:16:55.235Z,9.30
2023-10-10T00:19:27.826Z,9.00
2023-10-10T00:21:56.213Z,8.93
2023-10-10T00:24:26.801Z,10.45
2023-10-10T00:26:54.151Z,9.50
2023-10-10T00:29:24.343Z,9.20
2023-10-10T00:32:05.870Z,9.45
2023-10-10T00:34:35.432Z,9.30
2023-10-10T00:37:09.217Z,9.98
2023-10-10T00:39:37.172Z,8.95
2023-10-10T00:42:09.164Z,8.02
2023-10-10T00:44:39.042Z,8.55
2023-10-10T00:47:06.080Z,8.73
2023-10-10T00:49:32.703Z,10.05
2023-10-10T00:52:07.953Z,10.30
2023-10-10T00:54:40.724Z,13.05
2023-10-10T00:57:09.486Z,13.80
2023-10-10T00:59:36.882Z,13.73
2023-10-10T01:02:06.566Z,14.70
2023-10-10T01:04:36.924Z,13.83
2023-10-10T01:07:09.829Z,15.45
2023-10-10T01:09:41.598Z,14.13
2023-10-10T01:12:08.040Z,13.73
2023-10-10T01:14:35.146Z,13.75
2023-10-10T01:17:01.718Z,13.45
2023-10-10T01:19:31.531Z,12.82
2023-10-10T01:22:00.981Z,12.73
2023-10-10T01:24:27.814Z,12.82
2023-10-10T01:26:54.885Z,13.75
2023-10-10T01:29:27.613Z,13.57
2023-10-10T01:31:54.612Z,17.02
2023-10-10T01:34:40.647Z,16.92
2023-10-10T01:37:22.280Z,17.25
2023-10-10T01:39:52.703Z,14.95
2023-10-10T01:42:24.958Z,14.80
2023-10-10T01:44:53.252Z,14.00
2023-10-10T01:47:27.710Z,13.35
2023-10-10T01:49:59.204Z,13.82
2023-10-10T01:52:26.690Z,16.77
2023-10-10T01:54:56.124Z,15.57
2023-10-10T01:57:23.146Z,14.30
2023-10-10T01:59:50.344Z,14.80
2023-10-10T02:02:19.606Z,14.35
2023-10-10T02:04:46.654Z,14.67
2023-10-10T02:07:24.436Z,16.50
2023-10-10T02:10:00.139Z,16.20
2023-10-10T02:12:27.481Z,15.30
2023-10-10T02:14:55.460Z,13.82
2023-10-10T02:17:28.309Z,15.07
2023-10-10T02:20:15.314Z,15.55
2023-10-10T02:22:52.460Z,15.73
2023-10-10T02:25:27.651Z,15.55
2023-10-10T02:27:57.734Z,15.32
2023-10-10T02:30:37.727Z,13.70
2023-10-10T02:33:23.034Z,14.93
2023-10-10T02:35:56.690Z,13.60
2023-10-10T02:38:32.930Z,14.63
2023-10-10T02:41:23.534Z,13.98
2023-10-10T02:44:17.197Z,14.25
2023-10-10T02:46:44.150Z,14.82
2023-10-10T02:49:14.835Z,14.18
2023-10-10T02:51:44.174Z,14.88
2023-10-10T02:54:30.160Z,13.60
2023-10-10T02:57:20.514Z,13.45
2023-10-10T02:59:47.056Z,15.32
2023-10-10T03:02:30.264Z,17.63
2023-10-10T03:04:59.974Z,17.95
2023-10-10T03:07:30.111Z,16.77
2023-10-10T03:10:07.046Z,17.88
2023-10-10T03:12:38.109Z,19.55
2023-10-10T03:15:14.846Z,22.45
2023-10-10T03:17:54.288Z,23.92
2023-10-10T03:20:32.651Z,27.70
2023-10-10T03:23:08.664Z,28.50
2023-10-10T03:25:46.714Z,29.48
2023-10-10T03:28:27.998Z,29.85
2023-10-10T03:31:24.286Z,29.55
2023-10-10T03:34:10.386Z,30.77
2023-10-10T03:36:46.389Z,31.65
2023-10-10T03:39:15.632Z,30.23
2023-10-10T03:42:00.457Z,30.33
2023-10-10T03:44:45.336Z,30.48
2023-10-10T03:47:30.274Z,31.27
2023-10-10T03:50:15.272Z,30.75
2023-10-10T03:53:00.517Z,29.95
2023-10-10T03:55:45.306Z,32.17
2023-10-10T03:58:30.081Z,30.33
2023-10-10T04:01:15.503Z,29.52
2023-10-10T04:04:00.419Z,31.58
2023-10-10T04:06:45.144Z,32.10
2023-10-10T04:09:29.995Z,32.60
2023-10-10T04:12:14.803Z,30.85
2023-10-10T04:14:59.778Z,33.70
2023-10-10T04:17:44.824Z,34.45
2023-10-10T04:20:29.992Z,32.30
2023-10-10T04:23:14.991Z,32.92
2023-10-10T04:25:59.790Z,33.17
2023-10-10T04:28:44.649Z,30.80
2023-10-10T04:31:29.473Z,30.35
2023-10-10T04:34:14.639Z,31.55
2023-10-10T04:36:59.752Z,32.75
2023-10-10T04:39:44.647Z,30.90
2023-10-10T04:42:29.623Z,33.38
2023-10-10T04:45:14.424Z,31.23
2023-10-10T04:47:59.286Z,31.67
2023-10-10T04:50:44.067Z,31.02
2023-10-10T04:53:28.933Z,28.77
2023-10-10T04:56:13.677Z,29.20
2023-10-10T04:58:58.488Z,29.85
2023-10-10T05:01:43.363Z,29.27
2023-10-10T05:04:28.299Z,27.20
2023-10-10T05:07:13.106Z,29.23
2023-10-10T05:09:58.040Z,29.80
2023-10-10T05:12:42.928Z,28.80
2023-10-10T05:15:28.173Z,28.38
2023-10-10T05:18:13.100Z,29.00
2023-10-10T05:20:57.837Z,29.95
2023-10-10T05:23:35.609Z,29.67
2023-10-10T05:26:03.707Z,29.42
2023-10-10T05:28:34.052Z,32.03
2023-10-10T05:33:31.443Z,31.60
2023-10-10T05:35:59.486Z,32.13
2023-10-10T05:38:26.537Z,35.53
2023-10-10T05:40:53.167Z,31.95
2023-10-10T05:43:27.338Z,33.28
2023-10-10T05:45:55.121Z,35.53
2023-10-10T05:48:22.289Z,34.00
2023-10-10T05:50:49.584Z,35.42
2023-10-10T05:53:18.100Z,33.85
2023-10-10T05:55:45.146Z,32.92
2023-10-10T05:58:13.415Z,32.47
2023-10-10T06:00:42.918Z,35.60
2023-10-10T06:03:09.652Z,34.40
2023-10-10T06:05:36.227Z,33.90
2023-10-10T06:08:03.174Z,32.85
2023-10-10T06:10:32.828Z,33.25
2023-10-10T06:13:04.689Z,33.70
2023-10-10T06:15:34.460Z,35.15
2023-10-10T06:18:13.400Z,33.67
2023-10-10T06:20:58.077Z,32.78
2023-10-10T06:23:27.175Z,33.83
2023-10-10T06:25:59.623Z,32.50
2023-10-10T06:28:29.752Z,31.88
2023-10-10T06:30:56.321Z,33.50
2023-10-10T06:33:29.535Z,33.65
2023-10-10T06:36:20.832Z,32.47
2023-10-10T06:38:47.784Z,33.67
2023-10-10T06:41:19.225Z,32.90
2023-10-10T06:43:47.741Z,34.10
2023-10-10T06:46:19.064Z,34.08
2023-10-10T06:48:48.496Z,33.85
2023-10-10T06:51:16.787Z,33.33
2023-10-10T06:53:46.214Z,33.17
2023-10-10T06:56:19.192Z,32.92
2023-10-10T06:58:45.899Z,33.03
2023-10-10T07:01:13.099Z,33.97
2023-10-10T07:03:41.417Z,33.13
2023-10-10T07:06:09.442Z,34.30
2023-10-10T07:08:36.278Z,33.45
2023-10-10T07:11:03.232Z,32.17
2023-10-10T07:13:33.126Z,34.28
2023-10-10T07:16:00.062Z,32.28
2023-10-10T07:18:26.898Z,33.10
2023-10-10T07:21:16.059Z,32.83
2023-10-10T07:24:02.376Z,31.02
2023-10-10T07:26:32.102Z,31.48
2023-10-10T07:29:18.669Z,31.83
2023-10-10T07:31:45.030Z,31.45
2023-10-10T07:34:16.712Z,31.83
2023-10-10T07:36:45.034Z,31.58
2023-10-10T07:39:29.801Z,31.88
2023-10-10T07:41:58.401Z,31.20
2023-10-10T07:44:24.832Z,32.72
2023-10-10T07:47:09.749Z,29.88
2023-10-10T07:49:36.198Z,32.35
2023-10-10T07:52:05.663Z,31.48
2023-10-10T07:54:42.280Z,31.27
2023-10-10T07:57:18.519Z,30.88
2023-10-10T07:59:45.473Z,31.58
2023-10-10T08:02:41.008Z,30.77
2023-10-10T08:05:12.271Z,29.73
2023-10-10T08:07:38.766Z,28.95
2023-10-10T08:10:14.957Z,29.50
2023-10-10T08:12:42.482Z,28.90
2023-10-10T08:15:27.164Z,28.42
2023-10-10T08:17:55.396Z,28.40
2023-10-10T08:20:37.131Z,29.38
2023-10-10T08:23:04.666Z,29.23
2023-10-10T08:25:31.333Z,28.45
2023-10-10T08:27:59.544Z,27.73
2023-10-10T08:30:29.361Z,28.77
2023-10-10T08:32:56.454Z,29.25
2023-10-10T08:35:24.300Z,28.27
2023-10-10T08:37:51.656Z,28.35
2023-10-10T08:40:21.104Z,26.85
2023-10-10T08:42:51.459Z,27.02
2023-10-10T08:45:24.778Z,26.95
2023-10-10T08:47:51.704Z,28.00
2023-10-10T08:50:18.378Z,26.25
2023-10-10T08:52:44.867Z,25.67
2023-10-10T08:55:12.579Z,25.52
2023-10-10T08:57:39.397Z,24.77
2023-10-10T09:00:18.747Z,24.98
2023-10-10T09:02:46.059Z,25.02
2023-10-10T09:05:15.362Z,25.35
2023-10-10T09:07:44.310Z,24.00
2023-10-10T09:10:17.564Z,24.08
2023-10-10T09:13:02.447Z,23.27
2023-10-10T09:15:29.161Z,23.05
2023-10-10T09:18:18.291Z,22.38
2023-10-10T09:20:48.198Z,23.15
2023-10-10T09:23:22.830Z,21.88
2023-10-10T09:26:05.543Z,21.08
2023-10-10T09:28:43.822Z,21.95
2023-10-10T09:31:21.130Z,21.63
2023-10-10T09:33:48.389Z,20.85
2023-10-10T09:36:20.711Z,20.17
2023-10-10T09:38:55.646Z,19.65
2023-10-10T09:41:34.756Z,19.83
2023-10-10T09:44:22.477Z,18.73
2023-10-10T09:47:10.722Z,17.52
2023-10-10T09:50:01.562Z,18.40
2023-10-10T09:52:46.757Z,17.98
2023-10-10T09:55:14.202Z,17.30
2023-10-10T09:57:41.079Z,17.67
2023-10-10T10:00:27.388Z,17.20
2023-10-10T10:02:58.769Z,17.00
2023-10-10T10:05:29.653Z,16.52
2023-10-10T10:08:14.603Z,17.27
2023-10-10T10:10:50.121Z,17.88
2023-10-10T10:13:20.632Z,18.05
2023-10-10T10:16:10.611Z,16.83
2023-10-10T10:18:46.074Z,16.20
2023-10-10T10:21:21.043Z,16.65
2023-10-10T10:23:57.735Z,15.57
2023-10-10T10:26:33.656Z,15.02
2023-10-10T10:29:08.565Z,16.00
2023-10-10T10:31:40.166Z,14.38
2023-10-10T10:34:24.329Z,14.70
2023-10-10T10:37:03.432Z,14.05
2023-10-10T10:39:35.796Z,14.90
2023-10-10T10:42:02.981Z,14.43
2023-10-10T10:44:29.296Z,13.80
2023-10-10T10:46:58.005Z,14.73
2023-10-10T10:49:29.473Z,14.63
2023-10-10T10:52:15.806Z,14.02
2023-10-10T10:54:44.070Z,13.60
2023-10-10T10:57:43.196Z,13.07
2023-10-10T11:00:27.962Z,13.75
2023-10-10T11:03:01.870Z,14.05
2023-10-10T11:05:28.768Z,14.07
2023-10-10T11:08:07.642Z,13.32
2023-10-10T11:10:38.100Z,14.63
2023-10-10T11:13:09.087Z,13.95
2023-10-10T11:15:39.391Z,14.00
2023-10-10T11:18:09.457Z,13.20
2023-10-10T11:21:05.444Z,13.20
2023-10-10T11:23:42.673Z,13.57
2023-10-10T11:26:09.505Z,13.25
2023-10-10T11:28:46.360Z,13.40
2023-10-10T11:31:13.299Z,14.18
2023-10-10T11:34:11.646Z,13.48
2023-10-10T11:36:41.062Z,12.55
2023-10-10T11:39:26.482Z,13.20
2023-10-10T11:41:52.907Z,12.85
2023-10-10T11:44:23.201Z,12.40
2023-10-10T11:46:50.961Z,13.55
2023-10-10T11:49:17.479Z,13.88
2023-10-10T11:51:43.885Z,14.43
2023-10-10T11:54:10.211Z,13.38
2023-10-10T11:56:36.594Z,13.68
2023-10-10T11:59:15.254Z,14.38
2023-10-10T12:01:52.671Z,14.25
2023-10-10T12:04:22.527Z,14.50
2023-10-10T12:06:48.916Z,13.52
2023-10-10T12:09:20.021Z,12.45
2023-10-10T12:11:46.351Z,12.82
2023-10-10T12:14:20.154Z,13.73
2023-10-10T12:16:51.299Z,12.63
2023-10-10T12:19:17.925Z,13.35
2023-10-10T12:21:44.270Z,12.70
2023-10-10T12:24:10.567Z,13.10
2023-10-10T12:26:43.106Z,14.45
2023-10-10T12:29:12.508Z,24.08
2023-10-10T12:31:38.956Z,26.65
2023-10-10T12:34:07.668Z,35.80
2023-10-10T12:36:34.697Z,37.40
2023-10-10T12:39:01.257Z,42.63
2023-10-10T12:41:28.986Z,40.03
2023-10-10T12:43:56.075Z,42.13
2023-10-10T12:46:22.889Z,36.10
2023-10-10T12:48:52.872Z,37.50
2023-10-10T12:51:23.445Z,62.55
2023-10-10T12:53:50.809Z,50.40
2023-10-10T12:56:21.390Z,110.90
2023-10-10T12:58:53.823Z,166.73
2023-10-10T13:01:26.876Z,158.45
2023-10-10T13:03:53.979Z,181.32
2023-10-10T13:06:23.945Z,190.68
2023-10-10T13:08:53.408Z,138.25
2023-10-10T13:11:21.438Z,59.05
2023-10-10T13:13:57.989Z,78.07
2023-10-10T13:16:47.793Z,102.47
2023-10-10T13:19:14.632Z,93.85
2023-10-10T13:21:42.513Z,92.95
2023-10-10T13:24:16.484Z,104.72
2023-10-10T13:26:46.747Z,72.05
2023-10-10T13:31:42.379Z,45.70
2023-10-10T13:34:08.852Z,47.78
2023-10-10T13:36:35.346Z,103.20
2023-10-10T13:39:06.879Z,103.35
2023-10-10T13:41:37.203Z,146.32
2023-10-10T13:44:04.518Z,246.20
2023-10-10T13:46:34.534Z,215.00
2023-10-10T13:49:01.089Z,221.82
2023-10-10T13:51:30.610Z,294.05
2023-10-10T13:53:58.340Z,278.83
2023-10-10T13:56:25.123Z,296.17
2023-10-10T13:58:53.407Z,353.95
2023-10-10T14:01:27.335Z,340.50
2023-10-10T14:04:01.763Z,341.38
2023-10-10T14:06:34.623Z,360.88
2023-10-10T14:09:01.729Z,199.60
2023-10-10T14:11:28.153Z,151.52
2023-10-10T14:13:55.408Z,117.88
2023-10-10T14:16:22.457Z,74.03
2023-10-10T14:18:52.342Z,43.28
2023-10-10T14:21:24.767Z,36.45
2023-10-10T14:23:51.234Z,43.58
2023-10-10T14:26:27.390Z,62.22
2023-10-10T14:28:53.998Z,51.47
2023-10-10T14:31:28.973Z,79.63
2023-10-10T14:33:56.116Z,143.70
2023-10-10T14:36:22.709Z,93.50
2023-10-10T14:38:51.496Z,131.32
2023-10-10T14:41:19.521Z,118.40
2023-10-10T14:43:49.126Z,75.30
2023-10-10T14:46:28.281Z,120.60
2023-10-10T14:49:07.925Z,78.35
2023-10-10T14:51:35.547Z,68.18
2023-10-10T14:54:07.751Z,81.32
2023-10-10T14:56:37.494Z,61.60
2023-10-10T14:59:05.266Z,73.30
2023-10-10T15:01:37.408Z,90.00
2023-10-10T15:04:07.687Z,79.07
2023-10-10T15:06:34.903Z,112.05
2023-10-10T15:09:01.550Z,93.68
2023-10-10T15:11:31.082Z,122.68
2023-10-10T15:13:58.391Z,100.55
2023-10-10T15:16:26.911Z,135.95
2023-10-10T15:18:53.472Z,190.83
2023-10-10T15:21:23.028Z,125.25
2023-10-10T15:23:49.500Z,139.82
2023-10-10T15:26:19.355Z,177.07
2023-10-10T15:28:45.783Z,157.88
2023-10-10T15:31:13.268Z,170.80
2023-10-10T15:33:44.569Z,161.38
2023-10-10T15:36:12.788Z,90.53
2023-10-10T15:38:39.517Z,161.40
2023-10-10T15:41:22.566Z,227.55
2023-10-10T15:43:49.254Z,139.40
2023-10-10T15:46:16.160Z,210.82
2023-10-10T15:48:43.859Z,243.52
2023-10-10T15:51:10.232Z,221.75
2023-10-10T15:53:43.302Z,221.60
2023-10-10T15:56:13.077Z,160.32
2023-10-10T16:01:10.612Z,44.72
2023-10-10T16:03:37.068Z,84.40
2023-10-10T16:06:08.743Z,88.88
2023-10-10T16:08:38.009Z,53.78
2023-10-10T16:11:06.049Z,23.50
2023-10-10T16:13:36.819Z,9.13
2023-10-10T16:16:06.824Z,7.35
2023-10-10T16:18:34.477Z,8.23
2023-10-10T16:21:01.167Z,6.28
2023-10-10T16:23:27.706Z,5.82
2023-10-10T16:25:54.096Z,6.68
2023-10-10T16:28:23.384Z,5.80
2023-10-10T16:30:54.092Z,6.75
2023-10-10T16:33:24.758Z,5.78
2023-10-10T16:35:52.056Z,6.18
2023-10-10T16:38:22.986Z,6.78
2023-10-10T16:40:52.912Z,6.47
2023-10-10T16:43:19.581Z,5.35
2023-10-10T16:45:50.564Z,5.90
2023-10-10T16:48:17.118Z,6.80
2023-10-10T16:50:43.549Z,6.68
2023-10-10T16:53:12.721Z,6.57
2023-10-10T16:55:42.209Z,6.87
2023-10-10T16:58:15.378Z,7.05
2023-10-10T17:00:42.692Z,6.85
2023-10-10T17:03:13.292Z,7.97
2023-10-10T17:05:41.377Z,8.27
2023-10-10T17:08:09.725Z,8.10
2023-10-10T17:10:37.244Z,8.05
2023-10-10T17:13:05.182Z,8.05
2023-10-10T17:15:35.390Z,7.93
2023-10-10T17:20:29.030Z,7.63
2023-10-10T17:22:55.512Z,7.30
2023-10-10T17:25:21.862Z,7.53
2023-10-10T17:27:52.925Z,7.43
2023-10-10T17:30:19.893Z,7.65
2023-10-10T17:32:47.363Z,6.82
2023-10-10T17:35:13.910Z,6.88
2023-10-10T17:37:40.339Z,6.32
2023-10-10T17:40:07.063Z,6.82
2023-10-10T17:42:33.669Z,6.40
2023-10-10T17:45:00.081Z,6.60
2023-10-10T17:47:29.738Z,6.45
2023-10-10T17:49:59.235Z,5.93
2023-10-10T17:52:25.937Z,6.90
2023-10-10T17:54:52.367Z,5.97
2023-10-10T17:57:22.864Z,5.85
2023-10-10T17:59:50.570Z,6.43
2023-10-10T18:02:17.069Z,6.97
2023-10-10T18:04:43.835Z,6.47
2023-10-10T18:07:11.514Z,5.68
2023-10-10T18:09:38.480Z,5.22
2023-10-10T18:12:05.029Z,6.22
2023-10-10T18:14:31.851Z,5.57
2023-10-10T18:16:58.250Z,5.82
2023-10-10T18:19:27.228Z,5.80
2023-10-10T18:21:54.311Z,6.40
2023-10-10T18:24:28.222Z,6.32
2023-10-10T18:26:55.969Z,6.32
2023-10-10T18:29:23.239Z,6.57
2023-10-10T18:31:49.567Z,5.88
2023-10-10T18:34:15.901Z,6.15
2023-10-10T18:36:42.421Z,5.35
2023-10-10T18:39:15.214Z,5.75
2023-10-10T18:41:44.821Z,5.40
2023-10-10T18:44:11.895Z,5.40
2023-10-10T18:46:38.272Z,5.85
2023-10-10T18:49:06.660Z,5.25
2023-10-10T18:51:33.581Z,5.40
2023-10-10T18:54:00.166Z,5.30
2023-10-10T18:56:26.589Z,4.90
2023-10-10T18:58:52.939Z,5.32
2023-10-10T19:01:22.862Z,5.50
2023-10-10T19:03:49.765Z,5.30
2023-10-10T19:06:19.009Z,5.07
2023-10-10T19:08:46.203Z,5.28
2023-10-10T19:11:14.606Z,4.70
2023-10-10T19:13:46.673Z,5.05
2023-10-10T19:16:13.409Z,5.05
2023-10-10T19:18:39.868Z,5.32
2023-10-10T19:21:14.009Z,5.40
2023-10-10T19:23:41.103Z,5.05
2023-10-10T19:26:07.497Z,4.85
2023-10-10T19:28:33.853Z,5.13
2023-10-10T19:31:00.185Z,4.90
2023-10-10T19:33:27.037Z,5.15
2023-10-10T19:35:53.494Z,5.10
2023-10-10T19:38:26.503Z,5.40
2023-10-10T19:40:54.124Z,4.65
2023-10-10T19:43:20.609Z,5.53
2023-10-10T19:45:46.926Z,5.40
2023-10-10T19:48:17.096Z,4.95
2023-10-10T19:50:44.886Z,5.00
2023-10-10T19:53:11.760Z,4.85
2023-10-10T19:55:39.081Z,4.68
2023-10-10T19:58:10.539Z,5.03
2023-10-10T20:00:40.821Z,5.43
2023-10-10T20:03:07.922Z,4.95
2023-10-10T20:05:37.787Z,5.32
2023-10-10T20:08:07.420Z,3.95
2023-10-10T20:10:33.993Z,4.60
2023-10-10T20:13:00.797Z,4.70
2023-10-10T20:15:30.322Z,4.97
2023-10-10T20:17:58.783Z,5.25
2023-10-10T20:20:31.314Z,4.63
2023-10-10T20:22:58.199Z,5.68
2023-10-10T20:25:24.913Z,4.80
2023-10-10T20:27:51.810Z,5.43
2023-10-10T20:30:22.604Z,5.13
2023-10-10T20:32:48.971Z,5.28
2023-10-10T20:35:18.636Z,5.30
2023-10-10T20:37:45.449Z,4.30
2023-10-10T20:40:17.825Z,4.38
2023-10-10T20:42:45.160Z,4.35
2023-10-10T20:45:11.973Z,4.53
2023-10-10T20:47:38.379Z,3.90
2023-10-10T20:50:05.881Z,4.97
2023-10-10T20:52:33.241Z,4.18
2023-10-10T20:55:00.258Z,4.88
2023-10-10T20:57:26.667Z,4.22
2023-10-10T20:59:53.088Z,3.70
2023-10-10T21:02:19.432Z,4.75
2023-10-10T21:04:46.080Z,4.22
2023-10-10T21:07:12.448Z,4.60
2023-10-10T21:09:38.843Z,4.30
2023-10-10T21:12:08.458Z,4.75
2023-10-10T21:14:35.845Z,4.78
2023-10-10T21:17:02.280Z,4.40
2023-10-10T21:19:30.184Z,4.15
2023-10-10T21:21:56.526Z,4.32
2023-10-10T21:24:22.864Z,4.20
2023-10-10T21:26:50.267Z,4.47
2023-10-10T21:29:19.697Z,3.80
2023-10-10T21:31:47.117Z,3.55
2023-10-10T21:34:13.583Z,4.70
2023-10-10T21:36:39.943Z,4.28
2023-10-10T21:39:08.269Z,4.40
2023-10-10T21:41:35.588Z,3.83
2023-10-10T21:44:01.921Z,4.80
2023-10-10T21:46:28.214Z,3.83
2023-10-10T21:48:54.568Z,4.13
2023-10-10T21:51:23.652Z,3.47
2023-10-10T21:53:50.211Z,3.60
2023-10-10T21:56:16.678Z,4.38
2023-10-10T21:58:42.997Z,4.63
2023-10-10T22:01:12.389Z,4.38
2023-10-10T22:03:43.090Z,4.20
2023-10-10T22:06:09.872Z,4.35
2023-10-10T22:08:37.511Z,4.03
2023-10-10T22:11:04.041Z,4.30
2023-10-10T22:13:30.445Z,4.22
2023-10-10T22:15:57.234Z,4.28
2023-10-10T22:18:23.698Z,4.40
2023-10-10T22:20:50.086Z,4.22
2023-10-10T22:23:16.630Z,4.50
2023-10-10T22:25:43.041Z,4.43
2023-10-10T22:28:10.913Z,4.90
2023-10-10T22:30:38.597Z,4.93
2023-10-10T22:33:05.914Z,5.18
2023-10-10T22:35:34.998Z,4.78
2023-10-10T22:38:01.348Z,4.32
2023-10-10T22:40:28.433Z,4.35
2023-10-10T22:42:55.498Z,5.30
2023-10-10T22:45:22.217Z,5.50
2023-10-10T22:47:49.166Z,4.78
2023-10-10T22:50:20.383Z,6.00
2023-10-10T22:52:47.509Z,4.97
2023-10-10T22:55:14.078Z,4.82
2023-10-10T22:57:43.243Z,4.97
2023-10-10T23:00:26.548Z,4.88
2023-10-10T23:02:57.680Z,5.15
2023-10-10T23:05:24.608Z,5.00
2023-10-10T23:07:50.914Z,5.10
2023-10-10T23:10:22.968Z,5.50
2023-10-10T23:12:49.525Z,5.18
2023-10-10T23:15:17.203Z,5.43
2023-10-10T23:17:44.452Z,5.97
2023-10-10T23:20:19.998Z,5.60
2023-10-10T23:22:46.640Z,5.55
2023-10-10T23:25:16.538Z,6.00
2023-10-10T23:27:43.086Z,5.93
2023-10-10T23:30:10.148Z,6.00
2023-10-10T23:32:37.398Z,5.80
2023-10-10T23:35:09.417Z,5.57
2023-10-10T23:37:39.135Z,6.25
2023-10-10T23:40:14.843Z,6.85
2023-10-10T23:42:43.875Z,6.50
2023-10-10T23:45:16.565Z,6.55
2023-10-10T23:47:43.176Z,6.10
2023-10-10T23:50:13.496Z,6.90
2023-10-10T23:52:46.221Z,6.85
2023-10-10T23:55:17.762Z,7.22
2023-10-10T23:57:46.581Z,7.60
